Time;durP1;ratioP1;P1;durP2;ratioP2;P2;SDS_P1;SDS_P2;PMS_P1;PMS_P2;Temp;Humidity;BMP_temperature;BMP_pressure;BME280_temperature;BME280_humidity;BME280_pressure;Samples;Min_cycle;Max_cycle;Signal;HPM_P1;HPM_P2
2021/06/07 00:02:05;;;;;;;8.23;4.80;;;;;;;14.53;92.44;100159.91;1751789;80;21529;-73
2021/06/07 00:04:31;;;;;;;8.17;4.97;;;;;;;14.53;92.44;100159.91;1732814;81;21324;-73
2021/06/07 00:06:59;;;;;;;7.10;4.80;;;;;;;14.50;92.39;100161.02;1774504;77;22041;-73
2021/06/07 00:09:28;;;;;;;6.70;4.67;;;;;;;14.46;92.37;100164.04;1786352;80;21927;-74
2021/06/07 00:12:01;;;;;;;6.83;4.90;;;;;;;14.42;92.45;100159.00;1767247;79;21644;-73
2021/06/07 00:14:32;;;;;;;7.23;5.23;;;;;;;14.43;92.47;100157.91;1769212;79;21900;-73
2021/06/07 00:17:02;;;;;;;6.40;5.07;;;;;;;14.41;92.50;100166.27;1764692;79;21333;-73
2021/06/07 00:19:31;;;;;;;6.83;5.37;;;;;;;14.40;92.63;100149.08;1783158;79;21461;-73
2021/06/07 00:21:59;;;;;;;7.63;5.20;;;;;;;14.41;92.23;100147.46;1766563;79;21543;-72
2021/06/07 00:24:26;;;;;;;8.90;5.23;;;;;;;14.41;92.23;100147.46;1757380;80;21394;-73
2021/06/07 00:26:55;;;;;;;7.20;5.20;;;;;;;14.42;92.45;100146.91;1749423;80;21363;-75
2021/06/07 00:29:21;;;;;;;5.83;4.63;;;;;;;14.42;92.42;100146.36;1747078;80;21813;-74
2021/06/07 00:31:50;;;;;;;7.00;5.10;;;;;;;14.41;92.37;100146.64;1742862;81;21362;-72
2021/06/07 00:34:16;;;;;;;7.43;5.53;;;;;;;14.36;92.25;100146.73;1775867;79;21466;-73
2021/06/07 00:36:45;;;;;;;7.43;5.30;;;;;;;14.26;92.20;100144.99;1756571;79;21457;-73
2021/06/07 00:39:14;;;;;;;8.63;5.43;;;;;;;14.20;92.22;100148.84;1765017;79;21212;-73
2021/06/07 00:41:42;;;;;;;6.83;5.37;;;;;;;14.06;91.96;100158.17;1753477;79;21400;-72
2021/06/07 00:44:12;;;;;;;7.83;5.30;;;;;;;14.06;91.96;100158.17;1768751;79;21409;-73
2021/06/07 00:46:41;;;;;;;7.50;5.63;;;;;;;14.03;92.40;100156.86;1735614;81;21361;-72
2021/06/07 00:49:08;;;;;;;7.63;5.47;;;;;;;14.02;92.51;100161.19;1746730;80;21429;-72
2021/06/07 00:51:37;;;;;;;7.67;6.43;;;;;;;14.02;92.64;100157.16;1755664;80;21840;-73
2021/06/07 00:54:04;;;;;;;7.67;5.80;;;;;;;14.03;92.73;100156.06;1735820;80;21462;-72
2021/06/07 00:56:31;;;;;;;8.57;6.67;;;;;;;14.04;92.82;100161.67;1767301;79;21266;-72
2021/06/07 00:58:59;;;;;;;8.53;6.40;;;;;;;14.03;92.95;100159.54;1771101;79;21366;-72
2021/06/07 01:01:28;;;;;;;8.13;6.80;;;;;;;14.04;93.10;100158.99;1768608;79;21250;-72
2021/06/07 01:03:57;;;;;;;8.33;6.77;;;;;;;14.04;93.21;100161.12;1766405;79;21314;-73
2021/06/07 01:06:25;;;;;;;9.60;6.43;;;;;;;14.04;93.29;100165.70;1745502;81;21452;-73
2021/06/07 01:08:52;;;;;;;8.57;6.23;;;;;;;14.03;93.42;100162.23;1771064;79;21718;-72
2021/06/07 01:11:21;;;;;;;11.40;7.70;;;;;;;14.04;93.47;100165.70;1773067;80;21369;-72
2021/06/07 01:13:50;;;;;;;8.83;6.87;;;;;;;14.04;93.52;100164.36;1770176;79;21358;-72
2021/06/07 01:16:19;;;;;;;9.73;8.73;;;;;;;14.04;93.43;100173.77;1771677;79;21273;-73
2021/06/07 01:18:47;;;;;;;10.93;8.83;;;;;;;14.04;93.43;100173.77;1746233;80;21445;-73
2021/06/07 01:21:19;;;;;;;10.63;9.30;;;;;;;14.04;93.47;100171.08;1769607;81;21348;-73
2021/06/07 01:23:47;;;;;;;10.93;9.83;;;;;;;13.99;93.49;100170.61;1772383;79;21390;-73
2021/06/07 01:26:17;;;;;;;12.00;10.73;;;;;;;14.00;93.50;100177.57;1767938;79;21299;-73
2021/06/07 01:28:44;;;;;;;12.60;10.27;;;;;;;13.96;93.45;100183.27;1769834;79;21282;-74
2021/06/07 01:31:12;;;;;;;13.13;11.17;;;;;;;13.97;93.53;100185.41;1756034;81;21358;-73
2021/06/07 01:33:42;;;;;;;15.27;11.77;;;;;;;13.99;93.55;100181.91;1747715;80;21303;-73
2021/06/07 01:36:09;;;;;;;12.27;10.80;;;;;;;14.01;93.53;100180.50;1768748;79;21294;-73
2021/06/07 01:38:37;;;;;;;11.67;10.40;;;;;;;14.02;93.44;100174.61;1769194;79;21898;-73
2021/06/07 01:41:08;;;;;;;12.63;10.60;;;;;;;14.01;93.36;100167.08;1749357;80;21447;-72
2021/06/07 01:43:36;;;;;;;13.68;10.65;;;;;;;13.99;93.24;100171.95;1775349;78;21406;-73
2021/06/07 01:46:03;;;;;;;11.83;10.47;;;;;;;13.96;93.23;100179.24;1765300;79;21078;-72
2021/06/07 01:48:31;;;;;;;12.10;10.40;;;;;;;13.92;93.30;100172.03;1760494;81;21286;-74
2021/06/07 01:51:00;;;;;;;11.50;9.73;;;;;;;13.91;93.46;100181.19;1770360;80;21111;-73
2021/06/07 01:53:28;;;;;;;14.20;9.83;;;;;;;13.91;93.59;100186.01;1766761;79;21401;-73
2021/06/07 01:56:01;;;;;;;13.17;10.93;;;;;;;13.95;93.73;100187.57;1767739;79;21353;-74
2021/06/07 01:58:28;;;;;;;10.93;9.60;;;;;;;13.97;93.83;100187.55;1759797;79;21742;-73
2021/06/07 02:01:08;;;;;;;13.20;10.50;;;;;;;13.98;93.93;100184.31;1784813;78;21342;-74
2021/06/07 02:03:35;;;;;;;11.73;9.67;;;;;;;14.03;94.02;100185.59;1769530;79;21348;-73
2021/06/07 02:06:05;;;;;;;11.27;10.07;;;;;;;14.06;94.01;100188.50;1763574;79;21677;-73
2021/06/07 02:08:32;;;;;;;11.00;9.33;;;;;;;14.09;93.89;100191.16;1763934;79;21234;-73
2021/06/07 02:11:13;;;;;;;9.77;8.30;;;;;;;14.10;93.75;100194.64;1737492;82;21426;-73
2021/06/07 02:13:41;;;;;;;9.00;8.10;;;;;;;14.11;93.59;100198.37;1756748;79;21836;-73
2021/06/07 02:16:20;;;;;;;10.03;8.03;;;;;;;14.05;93.36;100196.31;1735655;81;21565;-74
2021/06/07 02:18:47;;;;;;;7.97;7.17;;;;;;;14.07;93.26;100198.70;1738392;81;21372;-73
2021/06/07 02:21:16;;;;;;;5.57;5.00;;;;;;;14.08;93.10;100197.60;1770424;79;21269;-74
2021/06/07 02:23:43;;;;;;;4.63;4.17;;;;;;;13.91;92.72;100192.72;1768789;79;21469;-74
2021/06/07 02:26:10;;;;;;;4.67;4.27;;;;;;;13.91;92.72;100192.72;1769634;79;21567;-72
2021/06/07 02:28:38;;;;;;;4.77;4.27;;;;;;;13.84;92.79;100197.09;1772585;79;21415;-74
2021/06/07 02:31:05;;;;;;;4.63;3.90;;;;;;;13.83;92.77;100195.51;1758916;79;21418;-74
2021/06/07 02:33:32;;;;;;;4.53;4.10;;;;;;;13.82;92.74;100201.17;1750603;80;21546;-74
2021/06/07 02:35:59;;;;;;;5.93;5.03;;;;;;;13.77;93.03;100197.20;1769545;79;21518;-74
2021/06/07 02:38:26;;;;;;;7.10;5.70;;;;;;;13.77;93.03;100197.20;1779320;79;21561;-74
2021/06/07 02:40:54;;;;;;;5.70;5.20;;;;;;;13.76;92.93;100196.95;1763992;80;21700;-74
2021/06/07 02:43:21;;;;;;;6.07;5.17;;;;;;;13.76;93.02;100198.30;1738848;81;21399;-74
2021/06/07 02:45:48;;;;;;;6.93;5.70;;;;;;;13.72;93.12;100198.07;1769678;79;21465;-74
2021/06/07 02:48:16;;;;;;;6.43;5.83;;;;;;;13.75;93.33;100192.65;1734418;82;21341;-74
2021/06/07 02:50:46;;;;;;;6.87;5.40;;;;;;;13.83;93.45;100202.77;1734205;81;21994;-74
2021/06/07 02:53:13;;;;;;;6.00;5.40;;;;;;;13.84;93.51;100203.80;1772691;79;21600;-73
2021/06/07 02:55:48;;;;;;;6.87;5.60;;;;;;;13.89;93.65;100203.52;1753349;80;21469;-72
2021/06/07 02:58:15;;;;;;;6.37;5.30;;;;;;;13.90;93.68;100207.23;1778128;79;21333;-73
2021/06/07 03:00:54;;;;;;;6.60;5.50;;;;;;;13.95;94.05;100205.02;1772936;79;21477;-72
2021/06/07 03:03:22;;;;;;;6.17;5.30;;;;;;;13.95;94.05;100205.02;1783994;79;21319;-74
2021/06/07 03:05:50;;;;;;;5.87;5.37;;;;;;;14.00;93.84;100200.95;1769599;79;22229;-74
2021/06/07 03:08:19;;;;;;;5.77;5.17;;;;;;;14.04;93.87;100203.30;1765462;79;22000;-74
2021/06/07 03:10:51;;;;;;;6.17;5.58;;;;;;;14.09;94.00;100201.91;1766059;80;21513;-73
2021/06/07 03:13:19;;;;;;;7.07;6.37;;;;;;;14.22;94.42;100203.08;1775365;79;21588;-73
2021/06/07 03:15:48;;;;;;;9.03;6.90;;;;;;;14.22;94.42;100203.08;1752268;80;22035;-73
2021/06/07 03:18:15;;;;;;;8.47;6.60;;;;;;;14.40;94.33;100200.13;1776516;79;21753;-72
2021/06/07 03:20:43;;;;;;;8.20;6.83;;;;;;;14.40;94.33;100200.13;1770285;79;21567;-74
2021/06/07 03:23:14;;;;;;;8.07;7.17;;;;;;;14.50;94.63;100206.18;1762748;79;21750;-74
2021/06/07 03:25:42;;;;;;;10.57;7.57;;;;;;;14.60;94.64;100199.86;1766360;79;21789;-72
2021/06/07 03:28:10;;;;;;;9.57;7.50;;;;;;;14.71;94.63;100205.34;1769141;79;21830;-73
2021/06/07 03:30:37;;;;;;;9.13;6.90;;;;;;;14.82;94.10;100203.84;1768026;79;22057;-73
2021/06/07 03:33:07;;;;;;;8.43;7.10;;;;;;;14.85;94.33;100200.56;1749525;80;21785;-73
2021/06/07 03:35:37;;;;;;;8.78;6.80;;;;;;;14.92;94.19;100205.80;1750996;80;22453;-73
2021/06/07 03:38:05;;;;;;;11.23;7.73;;;;;;;15.05;94.05;100205.59;1742514;81;22540;-73
2021/06/07 03:40:34;;;;;;;9.10;7.23;;;;;;;15.05;94.05;100205.59;1770689;79;21766;-73
2021/06/07 03:43:02;;;;;;;9.37;7.17;;;;;;;15.13;93.66;100204.91;1767603;79;22370;-73
2021/06/07 03:45:29;;;;;;;8.67;7.17;;;;;;;15.21;93.54;100201.55;1771019;79;22349;-73
2021/06/07 03:47:55;;;;;;;11.87;7.50;;;;;;;15.32;93.47;100200.80;1748018;80;21811;-73
2021/06/07 03:50:25;;;;;;;10.37;7.37;;;;;;;15.44;93.27;100201.68;1740525;81;22206;-73
2021/06/07 03:52:52;;;;;;;9.53;7.70;;;;;;;15.51;93.01;100189.97;1754904;79;21828;-74
2021/06/07 03:55:20;;;;;;;10.37;7.60;;;;;;;15.54;92.59;100191.27;1739009;81;21754;-74
2021/06/07 03:57:47;;;;;;;9.70;7.70;;;;;;;15.57;92.45;100196.85;1753586;80;21783;-74
2021/06/07 04:00:17;;;;;;;12.33;7.63;;;;;;;15.65;92.37;100198.04;1733194;81;21845;-73
2021/06/07 04:02:44;;;;;;;9.43;6.93;;;;;;;15.71;92.15;100206.30;1785660;78;21705;-73
2021/06/07 04:05:11;;;;;;;13.43;7.73;;;;;;;15.74;91.93;100204.91;1789894;78;22304;-73
2021/06/07 04:07:39;;;;;;;9.13;7.63;;;;;;;15.76;91.75;100206.22;1769558;79;21048;-73
2021/06/07 04:10:11;;;;;;;11.73;8.27;;;;;;;15.76;91.75;100206.22;1755653;80;21038;-73
2021/06/07 04:12:38;;;;;;;10.45;7.95;;;;;;;15.80;91.42;100202.38;1749368;81;21748;-73
2021/06/07 04:15:06;;;;;;;10.30;8.10;;;;;;;15.80;91.37;100207.75;1768725;80;21026;-73
2021/06/07 04:17:33;;;;;;;10.87;8.50;;;;;;;15.78;91.26;100211.28;1769362;79;21704;-72
2021/06/07 04:20:00;;;;;;;9.80;8.33;;;;;;;15.74;91.15;100210.30;1767889;79;20994;-73
2021/06/07 04:22:27;;;;;;;10.77;7.60;;;;;;;15.70;91.13;100211.45;1768631;80;22185;-72
2021/06/07 04:24:53;;;;;;;11.93;8.37;;;;;;;15.64;91.22;100204.53;1769412;79;21045;-72
2021/06/07 04:27:20;;;;;;;8.40;7.50;;;;;;;15.64;91.26;100207.22;1767221;79;21128;-72
2021/06/07 04:29:48;;;;;;;9.17;7.63;;;;;;;15.67;91.27;100217.42;1775686;79;21124;-72
2021/06/07 04:32:15;;;;;;;11.37;8.17;;;;;;;15.67;91.27;100217.42;1767850;79;22101;-73
2021/06/07 04:34:41;;;;;;;8.93;7.97;;;;;;;15.73;91.26;100216.23;1765474;79;21015;-70
2021/06/07 04:37:09;;;;;;;10.33;8.10;;;;;;;15.77;91.48;100220.47;1771529;79;21089;-71
2021/06/07 04:39:36;;;;;;;9.77;7.80;;;;;;;15.80;91.18;100219.87;1768942;79;21709;-72
2021/06/07 04:42:04;;;;;;;12.20;8.40;;;;;;;15.85;91.22;100218.41;1768467;79;21139;-72
2021/06/07 04:44:30;;;;;;;10.37;7.90;;;;;;;15.87;90.94;100221.61;1733376;81;21042;-72
2021/06/07 04:46:57;;;;;;;9.80;8.37;;;;;;;15.89;90.92;100220.74;1766456;79;20981;-72
2021/06/07 04:49:24;;;;;;;10.37;8.00;;;;;;;15.95;90.73;100222.23;1747384;80;21165;-73
2021/06/07 04:51:51;;;;;;;11.90;8.00;;;;;;;16.02;90.66;100221.83;1746233;81;21074;-73
2021/06/07 04:54:18;;;;;;;9.40;7.80;;;;;;;16.08;90.48;100220.08;1764114;79;21091;-73
2021/06/07 04:56:45;;;;;;;9.80;7.87;;;;;;;16.15;90.42;100219.67;1761398;79;21071;-73
2021/06/07 04:59:12;;;;;;;11.00;7.83;;;;;;;16.21;90.09;100231.94;1765188;79;21596;-73
2021/06/07 05:01:39;;;;;;;9.93;7.97;;;;;;;16.27;89.71;100228.59;1736336;80;21097;-73
2021/06/07 05:04:05;;;;;;;11.37;8.40;;;;;;;16.37;89.49;100225.67;1748438;80;21648;-72
2021/06/07 05:06:32;;;;;;;9.30;7.17;;;;;;;16.48;89.31;100224.88;1747397;81;21480;-72
2021/06/07 05:08:59;;;;;;;11.40;7.40;;;;;;;16.58;88.57;100221.95;1740391;81;21570;-72
2021/06/07 05:11:26;;;;;;;9.47;7.47;;;;;;;16.74;88.21;100224.53;1737663;81;21042;-74
2021/06/07 05:13:53;;;;;;;12.73;7.20;;;;;;;16.90;87.68;100224.21;1743507;80;21588;-74
2021/06/07 05:16:20;;;;;;;8.77;7.03;;;;;;;17.02;87.41;100223.11;1768491;79;21085;-74
2021/06/07 05:18:47;;;;;;;9.73;7.07;;;;;;;17.15;86.97;100220.88;1734833;81;21907;-73
2021/06/07 05:21:14;;;;;;;8.47;7.07;;;;;;;17.16;85.91;100220.33;1768988;79;21025;-74
2021/06/07 05:23:40;;;;;;;8.10;6.83;;;;;;;17.11;84.55;100226.66;1774003;79;21082;-74
2021/06/07 05:26:07;;;;;;;8.73;7.20;;;;;;;17.05;84.58;100217.89;1752918;80;21080;-72
2021/06/07 05:28:34;;;;;;;8.07;6.70;;;;;;;17.05;84.44;100219.80;1735107;81;21078;-73
2021/06/07 05:31:02;;;;;;;8.77;7.00;;;;;;;17.08;84.79;100219.97;1767985;79;22000;-72
2021/06/07 05:33:28;;;;;;;11.43;7.67;;;;;;;17.10;84.54;100228.54;1764605;79;21166;-74
2021/06/07 05:36:34;;;;;;;8.03;6.73;;;;;;;17.10;84.14;100228.54;1767760;79;21041;-73
2021/06/07 05:39:01;;;;;;;9.00;7.30;;;;;;;17.13;84.25;100232.53;1793227;77;21652;-76
2021/06/07 05:41:27;;;;;;;11.50;7.97;;;;;;;17.28;84.33;100222.70;1822820;77;21101;-76
2021/06/07 05:43:54;;;;;;;9.77;7.80;;;;;;;17.42;84.22;100229.91;1779512;80;21117;-76
2021/06/07 05:46:21;;;;;;;8.50;7.13;;;;;;;17.55;84.01;100234.42;1778329;78;21056;-75
2021/06/07 05:48:47;;;;;;;9.80;7.97;;;;;;;17.74;83.83;100234.19;1780261;78;21515;-77
2021/06/07 05:51:14;;;;;;;9.20;7.87;;;;;;;17.88;83.47;100233.53;1779897;80;21067;-76
2021/06/07 05:53:43;;;;;;;9.27;7.50;;;;;;;17.93;82.61;100233.41;1786603;80;21130;-75
2021/06/07 05:56:10;;;;;;;11.03;7.87;;;;;;;17.93;82.21;100225.30;1781253;80;21108;-74
2021/06/07 05:58:37;;;;;;;10.27;7.43;;;;;;;17.94;81.75;100232.28;1780996;78;21186;-75
2021/06/07 06:01:04;;;;;;;10.27;7.30;;;;;;;17.95;81.56;100232.52;1784433;80;21111;-76
2021/06/07 06:03:33;;;;;;;9.23;7.40;;;;;;;17.99;81.70;100236.17;1783102;80;21036;-76
2021/06/07 06:05:59;;;;;;;10.10;8.10;;;;;;;18.01;81.28;100239.93;1779502;80;21412;-75
2021/06/07 06:08:26;;;;;;;8.80;7.73;;;;;;;17.99;81.49;100239.44;1764253;79;21093;-75
2021/06/07 06:10:52;;;;;;;13.37;8.63;;;;;;;18.03;81.96;100235.81;1755769;79;21131;-77
2021/06/07 06:13:19;;;;;;;8.33;7.50;;;;;;;18.16;82.04;100231.92;1789231;80;20997;-76
2021/06/07 06:15:47;;;;;;;9.63;7.80;;;;;;;18.34;81.37;100231.41;1773150;79;20962;-76
2021/06/07 06:18:15;;;;;;;12.13;7.77;;;;;;;18.50;81.10;100223.86;1771142;80;21001;-76
2021/06/07 06:20:41;;;;;;;10.13;7.43;;;;;;;18.70;81.17;100229.74;1759315;80;21111;-77
2021/06/07 06:23:08;;;;;;;9.97;7.50;;;;;;;18.87;79.43;100231.10;1768030;80;21033;-76
2021/06/07 06:25:35;;;;;;;10.10;7.73;;;;;;;18.94;79.14;100232.76;1768480;80;20938;-77
2021/06/07 06:28:01;;;;;;;9.43;7.47;;;;;;;19.04;78.71;100224.07;1784794;78;21029;-77
2021/06/07 06:30:28;;;;;;;10.17;7.50;;;;;;;19.17;77.66;100231.20;1780166;80;21606;-77
2021/06/07 06:32:58;;;;;;;9.00;7.40;;;;;;;19.09;76.28;100232.83;1788378;78;21794;-77
2021/06/07 06:35:25;;;;;;;8.27;7.07;;;;;;;18.98;75.93;100223.44;1785003;80;21111;-78
2021/06/07 06:37:52;;;;;;;9.67;7.10;;;;;;;18.96;75.93;100233.25;1765599;79;22197;-77
2021/06/07 06:40:26;;;;;;;8.40;7.23;;;;;;;18.97;75.74;100229.41;1753781;79;21132;-78
2021/06/07 06:42:53;;;;;;;7.83;6.83;;;;;;;19.03;76.25;100229.26;1769798;81;21052;-77
2021/06/07 06:45:20;;;;;;;9.07;7.50;;;;;;;19.15;76.26;100229.37;1767220;81;21562;-78
2021/06/07 06:47:51;;;;;;;7.77;6.97;;;;;;;19.13;74.90;100232.41;1767929;81;20965;-77
2021/06/07 06:50:17;;;;;;;7.83;6.90;;;;;;;18.98;74.43;100239.11;1760680;79;21056;-78
2021/06/07 06:52:44;;;;;;;9.97;7.23;;;;;;;18.87;75.03;100241.92;1767605;79;21475;-77
2021/06/07 06:55:11;;;;;;;7.73;6.90;;;;;;;18.91;75.42;100244.22;1768946;79;21051;-77
2021/06/07 06:57:38;;;;;;;8.97;6.70;;;;;;;19.00;74.89;100243.43;1766267;79;21112;-77
2021/06/07 07:00:07;;;;;;;10.53;6.57;;;;;;;18.98;74.52;100246.44;1761535;79;21549;-76
2021/06/07 07:02:34;;;;;;;7.07;6.37;;;;;;;19.01;74.53;100247.16;1764410;79;21347;-76
2021/06/07 07:05:01;;;;;;;9.43;6.50;;;;;;;19.06;73.97;100243.50;1764044;79;21040;-78
2021/06/07 07:07:27;;;;;;;7.60;5.87;;;;;;;19.10;73.96;100236.33;1751466;79;21048;-77
2021/06/07 07:09:54;;;;;;;8.90;6.13;;;;;;;19.13;73.50;100237.83;1763391;79;21571;-77
2021/06/07 07:12:24;;;;;;;7.17;6.37;;;;;;;19.16;73.25;100232.33;1766977;79;20993;-77
2021/06/07 07:14:49;;;;;;;8.30;5.90;;;;;;;19.11;73.29;100236.55;1739266;81;21025;-76
2021/06/07 07:17:15;;;;;;;7.23;6.03;;;;;;;19.06;73.53;100240.80;1761231;79;21003;-77
2021/06/07 07:19:44;;;;;;;6.50;5.03;;;;;;;19.08;73.96;100242.61;1761859;81;21112;-77
2021/06/07 07:22:11;;;;;;;8.07;5.73;;;;;;;19.18;74.06;100245.79;1762602;79;22011;-77
2021/06/07 07:24:42;;;;;;;9.27;5.70;;;;;;;19.34;73.65;100246.61;1770330;79;21142;-78
2021/06/07 07:27:07;;;;;;;7.13;5.57;;;;;;;19.48;72.74;100241.80;1770927;79;21436;-78
2021/06/07 07:29:33;;;;;;;7.13;5.30;;;;;;;19.61;72.25;100244.03;1770497;79;21048;-77
2021/06/07 07:32:00;;;;;;;7.80;5.60;;;;;;;19.77;71.92;100238.91;1758639;79;21005;-77
2021/06/07 07:34:27;;;;;;;8.77;5.50;;;;;;;19.96;71.43;100241.20;1788183;78;21157;-76
2021/06/07 07:36:53;;;;;;;7.10;5.13;;;;;;;20.18;71.32;100238.77;1787551;78;21059;-79
2021/06/07 07:39:20;;;;;;;8.20;5.13;;;;;;;20.41;70.19;100235.97;1778778;79;21141;-77
2021/06/07 07:41:48;;;;;;;7.03;4.60;;;;;;;20.51;68.90;100238.31;1790091;78;21055;-76
2021/06/07 07:44:15;;;;;;;7.33;5.33;;;;;;;20.56;68.32;100231.31;1796603;78;21524;-76
2021/06/07 07:46:42;;;;;;;7.33;4.60;;;;;;;20.55;67.72;100235.73;1789103;79;21079;-78
2021/06/07 07:49:10;;;;;;;5.07;4.00;;;;;;;20.62;67.04;100233.27;1789357;78;21113;-76
2021/06/07 07:51:39;;;;;;;10.80;4.33;;;;;;;20.58;65.81;100230.44;1754502;80;21659;-76
2021/06/07 07:54:08;;;;;;;5.83;4.03;;;;;;;20.56;65.45;100235.95;1744494;80;48996;-77
2021/06/07 07:56:35;;;;;;;8.63;4.47;;;;;;;20.54;64.25;100236.86;1774689;78;21087;-76
2021/06/07 07:59:02;;;;;;;5.47;3.83;;;;;;;20.51;63.80;100240.23;1789026;78;21335;-77
2021/06/07 08:01:28;;;;;;;6.63;4.20;;;;;;;20.54;63.83;100239.58;1785568;78;21103;-76
2021/06/07 08:03:55;;;;;;;6.17;4.23;;;;;;;20.65;63.94;100238.61;1781919;80;21016;-76
2021/06/07 08:06:22;;;;;;;7.20;4.60;;;;;;;20.71;63.30;100239.99;1790467;80;21186;-76
2021/06/07 08:08:48;;;;;;;9.53;5.00;;;;;;;20.77;63.04;100230.53;1760381;79;21044;-76
2021/06/07 08:11:15;;;;;;;6.30;4.13;;;;;;;20.82;62.61;100236.52;1755299;79;21115;-74
2021/06/07 08:13:41;;;;;;;9.67;5.07;;;;;;;20.83;62.07;100231.34;1760130;79;21181;-76
2021/06/07 08:16:10;;;;;;;6.57;4.17;;;;;;;20.78;62.68;100234.81;1761497;79;21185;-75
2021/06/07 08:18:37;;;;;;;6.90;4.10;;;;;;;20.80;62.59;100226.58;1768429;79;21548;-76
2021/06/07 08:21:04;;;;;;;6.93;4.23;;;;;;;20.79;62.26;100230.97;1766859;79;20962;-76
2021/06/07 08:23:31;;;;;;;7.93;4.43;;;;;;;20.85;62.07;100232.35;1757343;79;21095;-75
2021/06/07 08:25:58;;;;;;;7.07;4.10;;;;;;;21.02;62.33;100227.31;1768486;79;20966;-76
2021/06/07 08:28:25;;;;;;;7.37;4.03;;;;;;;21.33;61.04;100221.41;1754326;81;21049;-76
2021/06/07 08:30:52;;;;;;;6.13;4.03;;;;;;;21.64;61.32;100223.59;1783964;79;21065;-77
2021/06/07 08:33:18;;;;;;;7.20;4.50;;;;;;;21.92;59.13;100222.92;1760863;79;21052;-77
2021/06/07 08:35:45;;;;;;;9.07;4.07;;;;;;;21.97;57.84;100228.13;1757736;79;21071;-76
2021/06/07 08:38:12;;;;;;;6.63;3.63;;;;;;;21.98;58.36;100226.44;1752374;79;21053;-78
2021/06/07 08:40:39;;;;;;;5.70;4.07;;;;;;;22.01;57.73;100229.02;1757619;79;20985;-75
2021/06/07 08:43:06;;;;;;;7.53;4.20;;;;;;;22.04;57.94;100222.89;1763972;79;21053;-75
2021/06/07 08:45:34;;;;;;;8.40;3.40;;;;;;;22.09;57.58;100230.83;1762913;79;21527;-75
2021/06/07 08:48:01;;;;;;;5.63;3.40;;;;;;;22.06;57.20;100226.65;1771854;79;21137;-76
2021/06/07 08:50:30;;;;;;;4.33;2.97;;;;;;;21.98;57.46;100231.88;1772617;79;21019;-76
2021/06/07 08:52:57;;;;;;;4.67;2.63;;;;;;;21.93;56.35;100231.30;1767779;79;21508;-77
2021/06/07 08:55:27;;;;;;;6.27;2.93;;;;;;;21.88;55.88;100227.44;1768453;81;21524;-76
2021/06/07 08:57:55;;;;;;;6.30;2.97;;;;;;;21.82;55.47;100235.62;1763756;79;21662;-76
2021/06/07 09:00:36;;;;;;;4.70;2.93;;;;;;;21.76;55.69;100233.13;1779217;80;21141;-76
2021/06/07 09:03:09;;;;;;;4.73;3.07;;;;;;;21.79;56.18;100227.58;1782495;78;21068;-75
2021/06/07 09:05:36;;;;;;;4.93;2.67;;;;;;;21.93;55.45;100230.73;1781328;80;21014;-77
2021/06/07 09:08:13;;;;;;;3.80;2.70;;;;;;;22.01;54.56;100226.30;1783259;80;21562;-75
2021/06/07 09:10:51;;;;;;;4.90;2.53;;;;;;;22.06;54.48;100232.09;1767889;80;21713;-75
2021/06/07 09:13:21;;;;;;;5.10;2.90;;;;;;;22.16;53.65;100231.64;1784047;78;21712;-75
2021/06/07 09:15:51;;;;;;;4.67;2.77;;;;;;;22.28;53.70;100224.01;1784602;80;21001;-74
2021/06/07 09:18:39;;;;;;;5.93;2.80;;;;;;;22.39;53.32;100214.25;1768878;80;21066;-76
2021/06/07 09:21:20;;;;;;;5.43;2.73;;;;;;;22.53;53.09;100211.92;1791028;80;22643;-75
2021/06/07 09:23:54;;;;;;;4.90;2.97;;;;;;;22.63;52.37;100209.28;1769614;80;21055;-74
2021/06/07 09:26:38;;;;;;;4.67;2.90;;;;;;;22.75;52.19;100209.23;1787191;79;21127;-74
2021/06/07 09:29:09;;;;;;;8.10;3.03;;;;;;;22.87;52.49;100208.40;1780887;79;21019;-74
2021/06/07 09:31:40;;;;;;;5.37;3.67;;;;;;;22.98;52.24;100215.52;1734427;80;21028;-74
2021/06/07 09:34:08;;;;;;;6.47;3.07;;;;;;;23.06;51.63;100208.52;1785772;78;20999;-74
2021/06/07 09:36:40;;;;;;;5.50;2.90;;;;;;;23.15;51.88;100207.80;1785846;78;21020;-74
2021/06/07 09:39:23;;;;;;;6.00;2.50;;;;;;;23.30;51.24;100201.36;1785690;78;21836;-75
2021/06/07 09:42:09;;;;;;;4.83;2.73;;;;;;;23.39;49.43;100190.48;1772182;78;21126;-75
2021/06/07 09:44:52;;;;;;;6.23;2.90;;;;;;;23.36;49.44;100198.57;1740329;80;21732;-74
2021/06/07 09:47:27;;;;;;;;;;;;;;;23.36;48.93;100189.03;1788236;78;21015;-74
2021/06/07 09:50:04;;;;;;;5.83;2.90;;;;;;;23.29;48.66;100192.37;1788850;78;20241;-74
2021/06/07 09:52:53;;;;;;;7.60;3.30;;;;;;;23.17;48.82;100195.20;1781802;78;21529;-73
2021/06/07 09:55:23;;;;;;;5.60;2.70;;;;;;;23.10;48.47;100197.17;1752805;80;21088;-74
2021/06/07 09:58:00;;;;;;;4.87;2.93;;;;;;;23.12;48.69;100175.80;1781240;78;21498;-75
2021/06/07 10:00:44;;;;;;;4.47;2.80;;;;;;;23.25;49.09;100183.32;1777291;78;21614;-74
2021/06/07 10:03:29;;;;;;;6.73;2.63;;;;;;;23.45;48.83;100177.38;1759797;81;21039;-74
2021/06/07 10:06:27;;;;;;;4.37;2.83;;;;;;;23.61;46.99;100171.34;1780901;78;21134;-74
2021/06/07 10:08:59;;;;;;;5.17;2.70;;;;;;;23.62;45.26;100174.27;1787795;80;21060;-75
2021/06/07 10:11:36;;;;;;;5.17;3.13;;;;;;;23.49;45.50;100166.56;1757850;81;22257;-75
2021/06/07 10:14:19;;;;;;;5.57;2.80;;;;;;;23.39;45.74;100167.89;1748831;81;21052;-74
2021/06/07 10:17:02;;;;;;;4.87;2.93;;;;;;;23.39;46.39;100163.22;1778190;80;21028;-75
2021/06/07 10:19:48;;;;;;;6.00;2.70;;;;;;;23.43;46.94;100160.61;1785066;78;21125;-75
2021/06/07 10:22:06;;;;;;;6.07;2.70;;;;;;;23.48;46.96;100150.00;1770752;79;21032;-76
2021/06/07 10:24:32;;;;;;;3.40;2.20;;;;;;;23.53;46.85;100141.56;1784287;80;21076;-76
2021/06/07 10:27:02;;;;;;;4.20;2.43;;;;;;;23.56;46.57;100138.91;1775014;80;21035;-74
2021/06/07 10:29:38;;;;;;;3.93;2.57;;;;;;;23.58;46.33;100140.70;1778364;80;21158;-74
2021/06/07 10:32:12;;;;;;;3.90;2.33;;;;;;;23.61;46.18;100139.20;1790383;80;21106;-74
2021/06/07 10:34:52;;;;;;;3.93;2.37;;;;;;;23.63;45.74;100141.80;1773326;78;21059;-75
2021/06/07 10:37:20;;;;;;;4.20;2.77;;;;;;;23.64;46.19;100137.92;1773063;80;21012;-73
2021/06/07 10:39:47;;;;;;;5.10;2.90;;;;;;;23.70;45.61;100145.29;1769577;79;21024;-74
2021/06/07 10:42:24;;;;;;;5.67;2.80;;;;;;;23.69;45.64;100138.81;1788811;80;21040;-74
2021/06/07 10:45:00;;;;;;;4.17;2.70;;;;;;;23.62;45.43;100136.69;1767920;80;21934;-74
2021/06/07 10:47:42;;;;;;;5.03;2.60;;;;;;;23.63;45.60;100132.25;1780311;79;21111;-73
2021/06/07 10:50:10;;;;;;;4.97;2.87;;;;;;;23.62;44.95;100126.56;1796255;78;21052;-74
2021/06/07 10:53:01;;;;;;;5.23;2.90;;;;;;;23.66;46.04;100133.48;1773580;80;21111;-73
2021/06/07 10:55:37;;;;;;;4.83;2.70;;;;;;;23.74;45.42;100127.06;1776419;78;21574;-75
2021/06/07 10:58:08;;;;;;;4.23;2.50;;;;;;;23.86;44.96;100123.44;1779502;80;21110;-74
2021/06/07 11:00:46;;;;;;;5.30;2.33;;;;;;;23.92;44.44;100124.70;1758030;80;21101;-74
2021/06/07 11:03:21;;;;;;;3.83;2.40;;;;;;;23.93;43.89;100122.22;1761417;80;21539;-74
2021/06/07 11:05:53;;;;;;;3.23;1.93;;;;;;;23.88;43.85;100125.21;1782431;80;21072;-74
2021/06/07 11:08:29;;;;;;;5.65;2.75;;;;;;;23.83;43.02;100123.56;1781929;79;21040;-75
2021/06/07 11:11:17;;;;;;;4.47;2.10;;;;;;;23.78;43.48;100129.86;1788944;78;22251;-75
2021/06/07 11:13:51;;;;;;;4.40;1.87;;;;;;;23.74;43.34;100122.19;1783440;79;21040;-76
2021/06/07 11:16:42;;;;;;;7.00;2.10;;;;;;;23.78;42.90;100119.74;1785248;80;21025;-75
2021/06/07 11:19:11;;;;;;;5.00;1.80;;;;;;;23.82;43.11;100122.55;1785225;80;21009;-74
2021/06/07 11:22:00;;;;;;;4.60;1.70;;;;;;;23.82;43.66;100124.72;1789733;78;21052;-74
2021/06/07 11:24:38;;;;;;;3.53;1.90;;;;;;;23.82;43.01;100122.55;1758839;78;21983;-74
2021/06/07 11:27:07;;;;;;;2.43;1.57;;;;;;;23.81;42.74;100110.84;1745616;80;21034;-76
2021/06/07 11:29:35;;;;;;;2.33;1.70;;;;;;;23.82;42.94;100108.91;1780868;79;21474;-76
2021/06/07 11:32:09;;;;;;;3.00;1.83;;;;;;;23.82;41.81;100096.09;1778129;80;21126;-75
2021/06/07 11:34:48;;;;;;;4.10;2.00;;;;;;;23.83;42.00;100108.56;1788243;78;20948;-74
2021/06/07 11:37:37;;;;;;;3.03;1.77;;;;;;;23.79;41.79;100089.98;1758317;79;21096;-74